Portada
METAR-TAF:

METAR-TAF

Aeropuertos :

Aeropuerto Internacional de Bagdad

Bagdad, Iraq

latitud: 33-15-45N, longitud: 44-14-04E, altitud: 35 m

Observación

El informe se hizo hace 55 minutos, a las 12:00 UTC
Viento 9 kt del sureste
Temperatura 18°C
Humedad 52%
Presión 1016 hPa
Visibilidad 10 km o más
Cielo nuboso a una altura de 3000 ft

METAR: ORBI 061200Z 13009KT 9999 BKN030 18/08 Q1016 NOSIG

Hora: 15:55 (12:55 UTC)

Pronóstico

El informe se hizo hace 2 horas y 55 minutos, a las 10:00 UTC
Pronóstico válido del 06 a las 12 UTC al 07 a las 12 UTC
Viento 8 kt del sureste
Visibilidad: 8000 m
Cielo nuboso a una altura de 3000 ft
Evolucionando progresivamente
del 06 a las 20 UTC al 06 a las 22 UTC
Viento 8 kt del este-noreste
Visibilidad: 6000 m
Temporalmente
del 06 a las 22 UTC al 07 a las 12 UTC
chaparrones de lluvia

TAF: ORBI 061000Z 0612/0712 14008KT 8000 BKN030 BECMG 0620/0622 06008KT 6000 NSC TEMPO 0622/0712 -SHRA

Observaciones y pronósticos meteorológicos de más de 4000 aeropuertos (mensajes METAR y TAF).

Los puntos amarillos y rojos representan las estaciones disponibles.

Ponga el ratón en el punto deseado para ver el nombre de la estación.

Haga clic para ver las observaciones y los pronósticos meteorológicos.

Para cambiar el mapa : haga clic en los botones verdes con una cruz de color negro para hacer un zoom, en el botón verde con un guión para alejar o en las flechas verdes para mapas adyacentes.


METAR-TAF: